createdAt,value
2023-03-07T00:02:52.292Z,39.78
2023-03-07T00:06:07.002Z,42.55
2023-03-07T00:09:10.057Z,46.22
2023-03-07T00:12:12.472Z,57.05
2023-03-07T00:15:14.753Z,69.88
2023-03-07T00:18:17.136Z,75.68
2023-03-07T00:21:21.304Z,65.00
2023-03-07T00:24:23.688Z,57.25
2023-03-07T00:27:26.041Z,54.47
2023-03-07T00:30:28.325Z,47.50
2023-03-07T00:33:30.803Z,43.28
2023-03-07T00:36:33.306Z,46.38
2023-03-07T00:42:36.938Z,48.70
2023-03-07T00:45:39.255Z,48.00
2023-03-07T00:48:41.764Z,50.17
2023-03-07T00:51:44.044Z,55.20
2023-03-07T00:54:46.407Z,46.65
2023-03-07T00:57:48.826Z,49.22
2023-03-07T01:00:51.558Z,44.50
2023-03-07T01:03:54.494Z,40.20
2023-03-07T01:06:56.890Z,36.97
2023-03-07T01:09:59.368Z,51.08
2023-03-07T01:13:01.769Z,48.83
2023-03-07T01:16:14.234Z,48.67
2023-03-07T01:19:17.668Z,54.80
2023-03-07T01:22:19.969Z,56.63
2023-03-07T01:25:22.560Z,48.92
2023-03-07T01:28:25.043Z,47.38
2023-03-07T01:31:28.015Z,55.15
2023-03-07T01:34:30.953Z,36.45
2023-03-07T01:37:33.415Z,42.30
2023-03-07T01:40:39.083Z,50.88
2023-03-07T01:43:42.436Z,54.83
2023-03-07T01:46:55.359Z,53.28
2023-03-07T01:50:12.644Z,61.28
2023-03-07T01:53:16.598Z,53.53
2023-03-07T01:56:21.502Z,55.22
2023-03-07T01:59:35.036Z,63.60
2023-03-07T02:02:40.261Z,55.72
2023-03-07T02:05:54.527Z,56.30
2023-03-07T02:08:57.567Z,50.97
2023-03-07T02:12:01.770Z,41.38
2023-03-07T02:15:05.979Z,53.60
2023-03-07T02:18:09.169Z,49.92
2023-03-07T02:21:24.863Z,49.85
2023-03-07T02:24:34.358Z,52.55
2023-03-07T02:27:37.877Z,50.97
2023-03-07T02:30:57.116Z,41.90
2023-03-07T02:34:00.876Z,46.45
2023-03-07T02:37:20.290Z,46.38
2023-03-07T02:40:25.465Z,50.75
2023-03-07T02:43:28.408Z,43.38
2023-03-07T02:46:30.868Z,48.45
2023-03-07T02:49:33.491Z,44.40
2023-03-07T02:52:35.847Z,52.58
2023-03-07T02:55:38.233Z,52.35
2023-03-07T02:58:41.691Z,51.40
2023-03-07T03:01:44.085Z,55.22
2023-03-07T03:04:46.689Z,53.65
2023-03-07T03:07:49.603Z,38.22
2023-03-07T03:10:55.396Z,45.22
2023-03-07T03:14:00.502Z,52.50
2023-03-07T03:17:04.569Z,51.13
2023-03-07T03:20:08.975Z,43.40
2023-03-07T03:23:11.454Z,50.28
2023-03-07T03:26:13.953Z,47.97
2023-03-07T03:29:16.361Z,49.90
2023-03-07T03:32:18.907Z,54.90
2023-03-07T03:35:21.301Z,45.55
2023-03-07T03:38:24.341Z,42.57
2023-03-07T03:41:27.271Z,39.00
2023-03-07T03:44:30.175Z,52.60
2023-03-07T03:47:33.384Z,60.03
2023-03-07T03:50:36.106Z,49.03
2023-03-07T03:53:39.863Z,48.13
2023-03-07T03:56:42.214Z,57.72
2023-03-07T03:59:45.510Z,56.38
2023-03-07T04:02:49.337Z,53.83
2023-03-07T04:05:53.655Z,58.50
2023-03-07T04:08:56.390Z,59.25
2023-03-07T04:11:58.937Z,54.17
2023-03-07T04:15:01.942Z,49.10
2023-03-07T04:18:04.492Z,62.10
2023-03-07T04:21:07.627Z,58.90
2023-03-07T04:24:10.522Z,65.40
2023-03-07T04:27:12.912Z,41.07
2023-03-07T04:30:15.546Z,55.00
2023-03-07T04:33:17.911Z,57.03
2023-03-07T04:36:20.693Z,54.63
2023-03-07T04:39:23.228Z,45.72
2023-03-07T04:42:27.309Z,53.45
2023-03-07T04:45:31.802Z,60.25
2023-03-07T04:48:34.370Z,59.25
2023-03-07T04:51:36.891Z,60.92
2023-03-07T04:57:43.912Z,58.45
2023-03-07T05:00:48.275Z,62.85
2023-03-07T05:03:50.933Z,66.95
2023-03-07T05:06:55.731Z,81.97
2023-03-07T05:09:58.177Z,52.38
2023-03-07T05:13:01.780Z,69.07
2023-03-07T05:16:04.448Z,51.75
2023-03-07T05:19:07.484Z,61.40
2023-03-07T05:22:09.983Z,67.60
2023-03-07T05:25:12.637Z,74.57
2023-03-07T05:28:17.086Z,73.32
2023-03-07T05:31:19.532Z,66.30
2023-03-07T05:34:22.511Z,57.22
2023-03-07T05:37:25.145Z,75.60
2023-03-07T05:40:27.892Z,49.53
2023-03-07T05:43:30.359Z,75.28
2023-03-07T05:46:33.207Z,71.07
2023-03-07T05:49:35.992Z,64.32
2023-03-07T05:52:38.768Z,82.40
2023-03-07T05:55:41.487Z,67.03
2023-03-07T05:58:44.274Z,83.70
2023-03-07T06:01:46.858Z,95.10
2023-03-07T06:04:49.772Z,89.60
2023-03-07T06:07:52.142Z,75.83
2023-03-07T06:10:55.053Z,86.90
2023-03-07T06:17:02.154Z,86.00
2023-03-07T06:20:04.963Z,83.82
2023-03-07T06:23:07.589Z,64.03
2023-03-07T06:26:12.497Z,81.00
2023-03-07T06:29:16.406Z,85.82
2023-03-07T06:32:18.734Z,85.47
2023-03-07T06:35:21.610Z,88.53
2023-03-07T06:38:25.994Z,80.57
2023-03-07T06:41:28.810Z,60.97
2023-03-07T06:44:33.482Z,72.60
2023-03-07T06:47:35.813Z,60.03
2023-03-07T06:50:39.622Z,55.80
2023-03-07T06:53:42.361Z,51.63
2023-03-07T06:56:45.635Z,50.75
2023-03-07T06:59:53.814Z,52.88
2023-03-07T07:02:56.524Z,50.97
2023-03-07T07:05:59.289Z,46.43
2023-03-07T07:09:02.007Z,51.13
2023-03-07T07:12:09.521Z,89.00
2023-03-07T07:15:12.314Z,48.92
2023-03-07T07:18:14.756Z,49.23
2023-03-07T07:21:18.361Z,76.82
2023-03-07T07:24:23.776Z,49.03
2023-03-07T07:27:28.672Z,58.47
2023-03-07T07:30:32.009Z,49.83
2023-03-07T07:33:35.890Z,52.25
2023-03-07T07:36:39.997Z,51.83
2023-03-07T07:39:44.027Z,51.83
2023-03-07T07:42:56.034Z,56.85
2023-03-07T07:46:13.956Z,47.90
2023-03-07T07:49:18.512Z,47.80
2023-03-07T07:52:21.548Z,48.78
2023-03-07T07:55:25.192Z,62.92
2023-03-07T07:58:27.868Z,47.63
2023-03-07T08:01:30.909Z,46.08
2023-03-07T08:04:33.495Z,55.25
2023-03-07T08:07:35.865Z,50.10
2023-03-07T08:10:43.135Z,48.10
2023-03-07T08:13:45.738Z,48.30
2023-03-07T08:16:48.174Z,50.50
2023-03-07T08:19:50.905Z,45.17
2023-03-07T08:22:54.033Z,44.28
2023-03-07T08:25:56.430Z,38.67
2023-03-07T08:28:59.099Z,41.55
2023-03-07T08:32:02.033Z,40.13
2023-03-07T08:35:04.592Z,32.27
2023-03-07T08:38:07.023Z,38.60
2023-03-07T08:41:09.987Z,44.83
2023-03-07T08:44:12.397Z,31.20
2023-03-07T08:47:14.958Z,47.92
2023-03-07T08:50:17.637Z,43.53
2023-03-07T08:53:20.368Z,36.45
2023-03-07T08:56:22.751Z,42.10
2023-03-07T08:59:25.229Z,62.38
2023-03-07T09:02:27.578Z,40.70
2023-03-07T09:05:30.545Z,45.67
2023-03-07T09:08:33.513Z,43.97
2023-03-07T09:11:36.205Z,32.87
2023-03-07T09:14:38.621Z,38.38
2023-03-07T09:17:41.101Z,33.88
2023-03-07T09:20:43.553Z,42.65
2023-03-07T09:23:45.991Z,34.05
2023-03-07T09:26:48.349Z,36.63
2023-03-07T09:29:50.940Z,34.15
2023-03-07T09:32:53.484Z,38.78
2023-03-07T09:35:55.984Z,43.63
2023-03-07T09:38:58.484Z,40.13
2023-03-07T09:42:22.565Z,36.20
2023-03-07T09:45:34.188Z,42.95
2023-03-07T09:48:51.426Z,43.13
2023-03-07T09:51:59.505Z,49.20
2023-03-07T09:55:16.767Z,41.88
2023-03-07T09:58:23.246Z,39.75
2023-03-07T10:01:27.677Z,38.78
2023-03-07T10:05:02.165Z,39.22
2023-03-07T10:08:05.566Z,44.55
2023-03-07T10:11:41.273Z,51.17
2023-03-07T10:15:03.824Z,44.25
2023-03-07T10:18:15.327Z,43.25
2023-03-07T10:21:40.804Z,46.05
2023-03-07T10:25:01.035Z,46.83
2023-03-07T10:28:18.249Z,48.95
2023-03-07T10:31:34.870Z,57.75
2023-03-07T10:34:38.167Z,49.85
2023-03-07T10:37:56.701Z,62.20
2023-03-07T10:41:12.746Z,61.38
2023-03-07T10:44:19.319Z,63.05
2023-03-07T10:47:28.928Z,68.38
2023-03-07T10:50:41.029Z,96.63
2023-03-07T10:53:43.459Z,62.40
2023-03-07T10:57:16.510Z,66.53
2023-03-07T11:00:19.351Z,58.85
2023-03-07T11:03:31.238Z,51.03
2023-03-07T11:06:44.783Z,66.60
2023-03-07T11:09:48.624Z,61.25
2023-03-07T11:16:12.043Z,67.20
2023-03-07T11:19:45.534Z,64.03
2023-03-07T11:22:48.079Z,61.70
2023-03-07T11:25:55.010Z,63.10
2023-03-07T11:29:12.225Z,63.58
2023-03-07T11:32:33.015Z,65.20
2023-03-07T11:35:43.754Z,65.80
2023-03-07T11:39:01.842Z,83.35
2023-03-07T11:42:15.904Z,68.90
2023-03-07T11:45:35.729Z,81.22
2023-03-07T11:49:02.338Z,72.15
2023-03-07T11:52:19.621Z,72.95
2023-03-07T11:55:46.644Z,68.20
2023-03-07T11:59:00.982Z,76.55
2023-03-07T12:02:13.446Z,65.10
2023-03-07T12:06:00.148Z,70.85
2023-03-07T12:09:20.294Z,66.75
2023-03-07T12:12:52.041Z,68.72
2023-03-07T12:15:57.266Z,64.57
2023-03-07T12:19:46.045Z,60.45
2023-03-07T12:23:00.724Z,66.80
2023-03-07T12:26:22.582Z,67.55
2023-03-07T12:29:27.860Z,76.00
2023-03-07T12:32:33.036Z,80.45
2023-03-07T12:35:45.873Z,76.60
2023-03-07T12:38:53.678Z,90.40
2023-03-07T12:42:01.933Z,66.53
2023-03-07T12:45:11.074Z,63.22
2023-03-07T12:48:23.523Z,67.28
2023-03-07T12:51:29.914Z,74.57
2023-03-07T12:54:40.437Z,99.60
2023-03-07T12:57:45.256Z,125.95
2023-03-07T13:00:57.109Z,107.85
2023-03-07T13:04:18.648Z,55.78
2023-03-07T13:07:25.364Z,49.53
2023-03-07T13:10:28.064Z,49.95
2023-03-07T13:13:45.585Z,43.83
2023-03-07T13:16:49.684Z,48.40
2023-03-07T13:19:54.375Z,41.15
2023-03-07T13:22:59.837Z,45.13
2023-03-07T13:26:05.688Z,42.92
2023-03-07T13:29:09.416Z,43.05
2023-03-07T13:32:50.232Z,42.80
2023-03-07T13:35:57.923Z,45.97
2023-03-07T13:39:00.991Z,43.35
2023-03-07T13:42:03.726Z,53.70
2023-03-07T13:45:38.160Z,43.22
2023-03-07T13:48:40.378Z,43.72
2023-03-07T13:52:31.591Z,43.78
2023-03-07T13:55:41.253Z,46.53
2023-03-07T13:58:57.594Z,41.70
2023-03-07T14:02:04.352Z,45.53
2023-03-07T14:05:07.153Z,40.65
2023-03-07T14:08:14.194Z,49.63
2023-03-07T14:11:42.778Z,56.47
2023-03-07T14:15:05.700Z,45.65
2023-03-07T14:18:23.008Z,49.70
2023-03-07T14:21:46.848Z,50.60
2023-03-07T14:25:25.173Z,39.03
2023-03-07T14:28:28.824Z,47.20
2023-03-07T14:31:53.210Z,45.45
2023-03-07T14:34:55.852Z,42.00
2023-03-07T14:37:58.609Z,46.20
2023-03-07T14:41:09.538Z,42.58
2023-03-07T14:44:42.162Z,46.63
2023-03-07T14:47:44.490Z,44.88
2023-03-07T14:50:47.423Z,45.72
2023-03-07T14:53:50.564Z,55.20
2023-03-07T14:56:54.557Z,48.35
2023-03-07T15:03:25.663Z,57.55
2023-03-07T15:06:30.319Z,55.63
2023-03-07T15:09:34.115Z,54.50
2023-03-07T15:12:36.622Z,44.35
2023-03-07T15:15:46.334Z,49.95
2023-03-07T15:18:55.758Z,55.50
2023-03-07T15:22:00.883Z,73.80
2023-03-07T15:25:04.428Z,72.13
2023-03-07T15:28:19.290Z,82.40
2023-03-07T15:31:23.864Z,55.25
2023-03-07T15:34:30.727Z,71.45
2023-03-07T15:37:33.875Z,59.10
2023-03-07T15:40:37.588Z,58.50
2023-03-07T15:43:39.954Z,66.97
2023-03-07T15:46:51.804Z,72.07
2023-03-07T15:49:57.143Z,67.97
2023-03-07T15:53:06.381Z,55.75
2023-03-07T15:56:22.442Z,49.47
2023-03-07T15:59:39.322Z,55.28
2023-03-07T16:02:47.099Z,64.32
2023-03-07T16:05:49.972Z,53.72
2023-03-07T16:08:52.419Z,45.47
2023-03-07T16:11:55.029Z,42.92
2023-03-07T16:14:57.473Z,42.85
2023-03-07T16:18:00.010Z,42.78
2023-03-07T16:21:03.437Z,46.10
2023-03-07T16:24:06.355Z,40.53
2023-03-07T16:27:18.538Z,49.28
2023-03-07T16:30:24.142Z,48.55
2023-03-07T16:33:26.811Z,54.78
2023-03-07T16:36:29.352Z,53.83
2023-03-07T16:39:32.707Z,61.10
2023-03-07T16:45:40.181Z,102.90
2023-03-07T16:48:43.387Z,127.35
2023-03-07T16:51:53.260Z,90.57
2023-03-07T16:55:02.366Z,160.07
2023-03-07T16:58:05.916Z,77.80
2023-03-07T17:01:12.918Z,55.72
2023-03-07T17:04:15.673Z,50.38
2023-03-07T17:07:22.096Z,48.33
2023-03-07T17:10:29.100Z,45.83
2023-03-07T17:13:31.534Z,50.15
2023-03-07T17:16:36.726Z,37.05
2023-03-07T17:19:39.257Z,39.28
2023-03-07T17:22:41.706Z,45.38
2023-03-07T17:25:44.039Z,42.08
2023-03-07T17:28:46.518Z,39.92
2023-03-07T17:31:48.936Z,43.53
2023-03-07T17:34:51.412Z,38.85
2023-03-07T17:37:53.850Z,41.13
2023-03-07T17:40:57.053Z,61.05
2023-03-07T17:43:59.519Z,24.80
2023-03-07T17:47:01.908Z,44.70
2023-03-07T17:50:05.822Z,19.52
2023-03-07T17:53:08.308Z,14.07
2023-03-07T17:56:16.409Z,14.50
2023-03-07T17:59:18.765Z,11.95
2023-03-07T18:02:21.190Z,10.45
2023-03-07T18:05:26.111Z,10.82
2023-03-07T18:08:31.592Z,11.48
2023-03-07T18:11:35.308Z,12.10
2023-03-07T18:14:38.478Z,14.80
2023-03-07T18:17:47.719Z,12.57
2023-03-07T18:21:05.103Z,12.20
2023-03-07T18:24:29.069Z,12.18
2023-03-07T18:27:31.462Z,12.80
2023-03-07T18:30:34.263Z,16.08
2023-03-07T18:33:37.709Z,17.02
2023-03-07T18:36:41.390Z,11.10
2023-03-07T18:39:43.839Z,6.90
2023-03-07T18:42:46.255Z,5.97
2023-03-07T18:45:48.606Z,8.88
2023-03-07T18:48:51.809Z,3.75
2023-03-07T18:51:54.296Z,4.55
2023-03-07T18:54:56.757Z,10.25
2023-03-07T18:58:00.053Z,16.20
2023-03-07T19:01:13.694Z,10.82
2023-03-07T19:04:16.561Z,9.88
2023-03-07T19:07:18.937Z,8.68
2023-03-07T19:10:21.283Z,5.43
2023-03-07T19:13:23.623Z,12.02
2023-03-07T19:16:29.900Z,14.00
2023-03-07T19:19:32.337Z,10.10
2023-03-07T19:22:34.917Z,6.78
2023-03-07T19:25:37.437Z,11.23
2023-03-07T19:28:40.676Z,7.28
2023-03-07T19:31:46.109Z,4.65
2023-03-07T19:34:51.215Z,9.35
2023-03-07T19:37:53.537Z,6.28
2023-03-07T19:40:57.058Z,8.18
2023-03-07T19:44:00.723Z,8.65
2023-03-07T19:47:03.162Z,9.45
2023-03-07T19:50:05.876Z,10.18
2023-03-07T19:53:08.224Z,12.30
2023-03-07T19:56:12.346Z,12.85
2023-03-07T19:59:15.057Z,14.38
2023-03-07T20:02:17.447Z,12.95
2023-03-07T20:05:20.272Z,11.80
2023-03-07T20:08:22.650Z,16.73
2023-03-07T20:11:30.290Z,14.15
2023-03-07T20:14:32.586Z,15.50
2023-03-07T20:17:34.991Z,13.43
2023-03-07T20:20:37.603Z,13.13
2023-03-07T20:23:40.531Z,14.27
2023-03-07T20:26:42.973Z,14.30
2023-03-07T20:29:45.280Z,15.95
2023-03-07T20:32:48.207Z,16.58
2023-03-07T20:36:04.932Z,12.87
2023-03-07T20:39:13.137Z,15.95
2023-03-07T20:42:15.664Z,17.63
2023-03-07T20:45:18.073Z,15.57
2023-03-07T20:48:20.682Z,18.27
2023-03-07T20:51:25.247Z,21.20
2023-03-07T20:54:27.623Z,18.60
2023-03-07T20:57:30.083Z,18.83
2023-03-07T21:00:32.381Z,27.42
2023-03-07T21:03:35.342Z,18.17
2023-03-07T21:06:39.946Z,16.70
2023-03-07T21:09:42.346Z,21.17
2023-03-07T21:12:44.696Z,20.40
2023-03-07T21:15:56.944Z,30.27
2023-03-07T21:19:01.626Z,20.35
2023-03-07T21:22:04.489Z,16.65
2023-03-07T21:25:07.384Z,19.23
2023-03-07T21:28:09.719Z,19.03
2023-03-07T21:31:14.876Z,17.00
2023-03-07T21:34:17.277Z,18.50
2023-03-07T21:37:20.720Z,23.95
2023-03-07T21:40:23.230Z,21.00
2023-03-07T21:43:25.740Z,23.20
2023-03-07T21:46:28.388Z,20.85
2023-03-07T21:49:31.841Z,23.85
2023-03-07T21:52:34.172Z,22.63
2023-03-07T21:55:36.731Z,24.42
2023-03-07T21:58:39.802Z,17.25
2023-03-07T22:01:42.192Z,16.58
2023-03-07T22:04:44.901Z,21.35
2023-03-07T22:07:49.036Z,23.23
2023-03-07T22:11:00.543Z,19.25
2023-03-07T22:14:03.449Z,19.23
2023-03-07T22:17:05.984Z,25.13
2023-03-07T22:20:10.387Z,26.48
2023-03-07T22:23:12.733Z,28.90
2023-03-07T22:26:15.962Z,31.13
2023-03-07T22:29:18.272Z,27.60
2023-03-07T22:32:20.630Z,25.00
2023-03-07T22:35:23.091Z,18.85
2023-03-07T22:38:25.843Z,20.08
2023-03-07T22:41:28.912Z,18.58
2023-03-07T22:44:31.325Z,23.35
2023-03-07T22:47:34.700Z,18.35
2023-03-07T22:50:39.327Z,19.20
2023-03-07T22:53:41.712Z,22.13
2023-03-07T22:56:44.072Z,19.10
2023-03-07T22:59:48.591Z,19.05
2023-03-07T23:02:50.970Z,19.63
2023-03-07T23:05:53.398Z,21.10
2023-03-07T23:08:56.549Z,25.83
2023-03-07T23:11:59.054Z,19.60
2023-03-07T23:15:01.480Z,22.65
2023-03-07T23:18:03.993Z,21.67
2023-03-07T23:21:07.622Z,18.25
2023-03-07T23:24:11.422Z,21.20
2023-03-07T23:30:17.862Z,20.98
2023-03-07T23:33:20.285Z,20.65
2023-03-07T23:36:22.664Z,15.52
2023-03-07T23:39:26.121Z,20.15
2023-03-07T23:42:28.645Z,14.57
2023-03-07T23:45:31.323Z,18.75
2023-03-07T23:48:33.663Z,18.88
2023-03-07T23:51:36.003Z,18.77
2023-03-07T23:54:38.453Z,16.88
2023-03-07T23:57:41.192Z,16.88
